createdAt,value
2019-02-27T00:01:01.984Z,256.13
2019-02-27T00:03:36.091Z,251.23
2019-02-27T00:06:17.143Z,255.07
2019-02-27T00:08:51.279Z,238.40
2019-02-27T00:11:25.027Z,238.83
2019-02-27T00:14:00.023Z,223.63
2019-02-27T00:16:33.631Z,225.03
2019-02-27T00:19:19.304Z,191.00
2019-02-27T00:21:53.026Z,248.80
2019-02-27T00:24:30.675Z,234.43
2019-02-27T00:27:04.342Z,264.13
2019-02-27T00:29:41.183Z,282.10
2019-02-27T00:32:15.761Z,282.93
2019-02-27T00:34:50.423Z,278.10
2019-02-27T00:37:24.082Z,258.93
2019-02-27T00:40:06.269Z,248.63
2019-02-27T00:42:40.043Z,212.00
2019-02-27T00:45:18.390Z,191.57
2019-02-27T00:47:53.261Z,178.33
2019-02-27T00:50:27.661Z,182.30
2019-02-27T00:53:01.646Z,185.13
2019-02-27T00:55:39.549Z,199.40
2019-02-27T00:58:13.550Z,198.10
2019-02-27T01:00:59.380Z,226.10
2019-02-27T01:03:32.976Z,230.10
2019-02-27T01:06:06.626Z,224.40
2019-02-27T01:08:40.279Z,243.83
2019-02-27T01:11:18.175Z,233.50
2019-02-27T01:13:51.110Z,208.17
2019-02-27T01:16:24.822Z,201.33
2019-02-27T01:19:04.640Z,182.87
2019-02-27T01:21:37.878Z,175.77
2019-02-27T01:24:14.973Z,193.33
2019-02-27T01:26:49.074Z,192.93
2019-02-27T01:29:22.746Z,198.33
2019-02-27T01:31:57.684Z,191.10
2019-02-27T01:34:31.635Z,192.90
2019-02-27T01:37:07.649Z,189.67
2019-02-27T01:39:41.805Z,164.73
2019-02-27T01:42:16.575Z,179.97
2019-02-27T01:44:51.190Z,178.00
2019-02-27T01:47:24.858Z,183.73
2019-02-27T01:50:02.107Z,158.60
2019-02-27T01:52:35.757Z,158.33
2019-02-27T01:55:16.645Z,169.77
2019-02-27T01:57:50.273Z,168.07
2019-02-27T02:00:24.051Z,181.30
2019-02-27T02:02:57.707Z,156.17
2019-02-27T02:05:46.483Z,158.23
2019-02-27T02:08:20.179Z,190.37
2019-02-27T02:11:09.437Z,180.77
2019-02-27T02:13:51.397Z,169.43
2019-02-27T02:16:34.143Z,187.00
2019-02-27T02:19:22.017Z,164.30
2019-02-27T02:22:01.487Z,170.60
2019-02-27T02:24:43.802Z,153.23
2019-02-27T02:27:44.849Z,165.10
2019-02-27T02:30:36.334Z,169.37
2019-02-27T02:33:29.099Z,155.10
2019-02-27T02:36:35.633Z,168.33
2019-02-27T02:39:17.932Z,175.80
2019-02-27T02:42:14.220Z,194.43
2019-02-27T02:45:06.306Z,188.63
2019-02-27T02:47:45.562Z,180.20
2019-02-27T02:50:22.302Z,177.20
2019-02-27T02:53:18.332Z,165.83
2019-02-27T02:56:04.198Z,152.60
2019-02-27T03:01:35.467Z,148.97
2019-02-27T03:04:33.778Z,148.87
2019-02-27T03:07:16.155Z,150.77
2019-02-27T03:09:55.767Z,133.23
2019-02-27T03:12:50.386Z,149.50
2019-02-27T03:15:41.862Z,139.90
2019-02-27T03:18:30.472Z,158.10
2019-02-27T03:21:07.194Z,142.73
2019-02-27T03:24:03.397Z,144.70
2019-02-27T03:27:02.963Z,137.57
2019-02-27T03:30:02.396Z,127.67
2019-02-27T03:32:43.702Z,128.20
2019-02-27T03:35:35.528Z,160.53
2019-02-27T03:38:25.377Z,145.40
2019-02-27T03:41:26.255Z,138.70
2019-02-27T03:44:20.726Z,134.70
2019-02-27T03:47:26.997Z,131.40
2019-02-27T03:50:15.761Z,125.50
2019-02-27T03:53:24.725Z,123.27
2019-02-27T03:56:25.759Z,109.53
2019-02-27T03:59:29.807Z,117.67
2019-02-27T04:02:32.161Z,117.63
2019-02-27T04:05:41.802Z,113.30
2019-02-27T04:08:31.336Z,111.07
2019-02-27T04:11:06.060Z,108.37
2019-02-27T04:13:40.751Z,105.57
2019-02-27T04:16:17.863Z,105.43
2019-02-27T04:18:51.493Z,114.43
2019-02-27T04:21:26.082Z,116.70
2019-02-27T04:23:59.947Z,111.70
2019-02-27T04:26:34.001Z,109.60
2019-02-27T04:29:08.561Z,99.77
2019-02-27T04:31:46.139Z,101.87
2019-02-27T04:34:19.772Z,106.13
2019-02-27T04:37:00.048Z,112.57
2019-02-27T04:39:35.790Z,103.47
2019-02-27T04:42:17.183Z,101.20
2019-02-27T04:44:50.783Z,91.13
2019-02-27T04:47:29.204Z,93.73
2019-02-27T04:50:04.435Z,80.57
2019-02-27T04:52:42.533Z,92.37
2019-02-27T04:55:16.303Z,85.67
2019-02-27T04:57:57.319Z,88.60
2019-02-27T05:00:30.971Z,89.63
2019-02-27T05:03:08.108Z,90.57
2019-02-27T05:05:41.985Z,84.80
2019-02-27T05:08:20.011Z,92.13
2019-02-27T05:10:53.735Z,87.43
2019-02-27T05:13:34.527Z,89.40
2019-02-27T05:16:08.399Z,84.97
2019-02-27T05:18:45.997Z,85.73
2019-02-27T05:21:19.809Z,84.27
2019-02-27T05:23:53.509Z,89.60
2019-02-27T05:26:31.724Z,94.40
2019-02-27T05:29:05.655Z,93.17
2019-02-27T05:31:42.754Z,90.83
2019-02-27T05:34:16.725Z,89.53
2019-02-27T05:36:52.237Z,84.27
2019-02-27T05:39:25.858Z,75.77
2019-02-27T05:42:07.903Z,85.67
2019-02-27T05:44:41.590Z,78.03
2019-02-27T05:47:16.826Z,82.20
2019-02-27T05:49:50.914Z,75.97
2019-02-27T05:52:25.715Z,77.33
2019-02-27T05:54:59.646Z,80.40
2019-02-27T05:57:35.184Z,84.50
2019-02-27T06:00:14.693Z,84.47
2019-02-27T06:02:48.755Z,85.83
2019-02-27T06:05:22.516Z,85.20
2019-02-27T06:07:56.208Z,84.80
2019-02-27T06:10:29.823Z,91.50
2019-02-27T06:13:03.762Z,91.93
2019-02-27T06:15:37.355Z,93.33
2019-02-27T06:18:22.452Z,94.30
2019-02-27T06:20:53.416Z,95.60
2019-02-27T06:23:29.111Z,90.07
2019-02-27T06:26:02.851Z,89.53
2019-02-27T06:28:36.563Z,88.70
2019-02-27T06:31:39.830Z,83.80
2019-02-27T06:34:13.444Z,86.60
2019-02-27T06:36:50.886Z,82.47
2019-02-27T06:39:24.971Z,72.27
2019-02-27T06:42:03.783Z,75.37
2019-02-27T06:44:39.262Z,79.80
2019-02-27T06:47:16.281Z,74.83
2019-02-27T06:49:51.943Z,66.87
2019-02-27T06:52:25.153Z,75.30
2019-02-27T06:55:01.352Z,58.10
2019-02-27T06:57:35.077Z,55.07
2019-02-27T07:00:18.410Z,57.97
2019-02-27T07:02:55.124Z,46.10
2019-02-27T07:05:29.481Z,48.77
2019-02-27T07:08:05.200Z,48.03
2019-02-27T07:10:41.599Z,50.63
2019-02-27T07:13:15.309Z,49.07
2019-02-27T07:15:49.350Z,44.67
2019-02-27T07:18:23.027Z,48.27
2019-02-27T07:20:58.249Z,41.73
2019-02-27T07:23:32.302Z,47.80
2019-02-27T07:26:05.901Z,46.40
2019-02-27T07:28:43.375Z,40.47
2019-02-27T07:31:18.323Z,40.95
2019-02-27T07:33:51.675Z,38.15
2019-02-27T07:36:25.872Z,44.30
2019-02-27T07:39:00.366Z,37.83
2019-02-27T07:41:34.588Z,38.23
2019-02-27T07:44:08.774Z,36.95
2019-02-27T07:46:43.157Z,37.05
2019-02-27T07:49:17.420Z,37.15
2019-02-27T07:51:51.705Z,36.58
2019-02-27T07:54:28.818Z,38.98
2019-02-27T07:57:03.164Z,42.00
2019-02-27T07:59:38.246Z,39.38
2019-02-27T08:02:20.068Z,35.25
2019-02-27T08:04:54.757Z,35.30
2019-02-27T08:07:30.504Z,35.13
2019-02-27T08:10:07.916Z,34.27
2019-02-27T08:12:42.242Z,36.00
2019-02-27T08:15:18.111Z,36.68
2019-02-27T08:17:57.337Z,38.50
2019-02-27T08:20:28.160Z,34.88
2019-02-27T08:23:02.373Z,33.88
2019-02-27T08:25:36.659Z,29.87
2019-02-27T08:28:10.879Z,27.90
2019-02-27T08:30:45.157Z,30.68
2019-02-27T08:33:19.484Z,27.70
2019-02-27T08:35:53.770Z,26.73
2019-02-27T08:38:28.361Z,27.22
2019-02-27T08:41:02.849Z,26.85
2019-02-27T08:43:37.014Z,27.13
2019-02-27T08:46:11.500Z,25.52
2019-02-27T08:48:49.902Z,24.47
2019-02-27T08:51:21.863Z,24.15
2019-02-27T08:53:59.025Z,27.22
2019-02-27T08:56:31.909Z,23.30
2019-02-27T08:59:06.193Z,24.23
2019-02-27T09:01:40.813Z,21.55
2019-02-27T09:04:16.026Z,23.80
2019-02-27T09:06:50.216Z,23.95
2019-02-27T09:09:24.434Z,21.97
2019-02-27T09:11:58.745Z,20.95
2019-02-27T09:14:33.098Z,21.50
2019-02-27T09:17:07.498Z,21.15
2019-02-27T09:19:45.337Z,22.52
2019-02-27T09:22:17.608Z,22.65
2019-02-27T09:24:52.382Z,23.90
2019-02-27T09:27:26.912Z,20.52
2019-02-27T09:30:17.124Z,18.62
2019-02-27T09:32:51.409Z,22.22
2019-02-27T09:35:25.730Z,19.65
2019-02-27T09:38:03.340Z,17.77
2019-02-27T09:40:38.892Z,18.45
2019-02-27T09:43:13.600Z,17.52
2019-02-27T09:45:47.915Z,18.62
2019-02-27T09:48:31.111Z,19.20
2019-02-27T09:51:05.464Z,17.00
2019-02-27T09:53:39.540Z,16.57
2019-02-27T09:56:14.058Z,18.32
2019-02-27T09:58:52.096Z,16.93
2019-02-27T10:01:26.388Z,15.38
2019-02-27T10:04:04.170Z,16.42
2019-02-27T10:06:40.425Z,16.87
2019-02-27T10:09:18.136Z,16.53
2019-02-27T10:11:52.321Z,14.53
2019-02-27T10:14:26.430Z,12.27
2019-02-27T10:17:00.363Z,12.90
2019-02-27T10:19:34.576Z,12.63
2019-02-27T10:22:21.188Z,13.40
2019-02-27T10:24:55.106Z,12.73
2019-02-27T10:27:32.971Z,11.23
2019-02-27T10:30:16.699Z,13.30
2019-02-27T10:32:50.794Z,12.20
2019-02-27T10:35:26.793Z,11.07
2019-02-27T10:38:00.987Z,12.00
2019-02-27T10:40:35.038Z,9.93
2019-02-27T10:43:09.414Z,10.20
2019-02-27T10:45:48.222Z,10.73
2019-02-27T10:48:19.433Z,10.67
2019-02-27T10:50:58.792Z,10.37
2019-02-27T10:53:32.729Z,11.23
2019-02-27T10:56:08.296Z,12.07
2019-02-27T10:58:42.150Z,11.90
2019-02-27T11:01:16.076Z,13.43
2019-02-27T11:03:55.030Z,11.47
2019-02-27T11:06:33.998Z,12.90
2019-02-27T11:09:22.996Z,12.23
2019-02-27T11:11:56.981Z,14.27
2019-02-27T11:14:31.996Z,13.70
2019-02-27T11:17:07.543Z,14.53
2019-02-27T11:19:45.219Z,13.07
2019-02-27T11:22:19.270Z,12.47
2019-02-27T11:24:56.387Z,12.67
2019-02-27T11:27:30.427Z,11.83
2019-02-27T11:30:18.631Z,12.30
2019-02-27T11:32:56.885Z,11.80
2019-02-27T11:35:28.509Z,12.27
2019-02-27T11:38:02.829Z,12.83
2019-02-27T11:40:41.623Z,14.27
2019-02-27T11:43:13.556Z,13.80
2019-02-27T11:45:57.514Z,14.93
2019-02-27T11:48:29.590Z,12.37
2019-02-27T11:51:08.990Z,12.68
2019-02-27T11:53:43.472Z,13.53
2019-02-27T11:56:21.770Z,12.80
2019-02-27T11:58:56.002Z,12.03
2019-02-27T12:01:32.134Z,12.98
2019-02-27T12:04:06.474Z,12.28
2019-02-27T12:06:44.863Z,13.00
2019-02-27T12:09:19.516Z,13.45
2019-02-27T12:11:56.829Z,12.90
2019-02-27T12:14:31.117Z,12.55
2019-02-27T12:17:06.582Z,14.03
2019-02-27T12:19:44.405Z,22.42
2019-02-27T12:22:16.648Z,13.65
2019-02-27T12:24:56.089Z,13.10
2019-02-27T12:27:48.437Z,13.38
2019-02-27T12:30:09.444Z,14.50
2019-02-27T12:32:50.313Z,18.25
2019-02-27T12:35:26.421Z,14.33
2019-02-27T12:38:08.828Z,14.60
2019-02-27T12:40:43.170Z,14.33
2019-02-27T12:43:23.797Z,13.15
2019-02-27T12:46:00.895Z,12.45
2019-02-27T12:48:34.022Z,15.58
2019-02-27T12:51:08.447Z,12.00
2019-02-27T12:53:43.845Z,13.80
2019-02-27T12:56:18.074Z,13.13
2019-02-27T12:58:52.342Z,12.40
2019-02-27T13:01:30.607Z,12.82
2019-02-27T13:04:04.945Z,13.32
2019-02-27T13:06:42.601Z,11.95
2019-02-27T13:09:16.971Z,14.00
2019-02-27T13:11:51.271Z,13.25
2019-02-27T13:14:25.455Z,11.53
2019-02-27T13:17:03.123Z,12.90
2019-02-27T13:19:38.440Z,14.93
2019-02-27T13:22:13.361Z,13.40
2019-02-27T13:24:50.191Z,12.25
2019-02-27T13:27:25.217Z,12.53
2019-02-27T13:30:09.158Z,14.45
2019-02-27T13:32:42.120Z,14.03
2019-02-27T13:35:29.582Z,14.53
2019-02-27T13:38:04.043Z,13.32
2019-02-27T13:40:38.682Z,15.58
2019-02-27T13:43:12.943Z,12.65
2019-02-27T13:45:55.717Z,13.32
2019-02-27T13:48:29.929Z,12.93
2019-02-27T13:51:05.552Z,14.28
2019-02-27T13:53:39.821Z,12.43
2019-02-27T13:56:25.132Z,14.28
2019-02-27T13:58:58.647Z,13.58
2019-02-27T14:01:36.275Z,13.35
2019-02-27T14:04:10.550Z,15.40
2019-02-27T14:06:47.420Z,14.58
2019-02-27T14:09:20.798Z,15.88
2019-02-27T14:11:58.440Z,22.00
2019-02-27T14:14:31.078Z,16.05
2019-02-27T14:17:08.559Z,14.83
2019-02-27T14:19:42.861Z,15.00
2019-02-27T14:22:20.596Z,16.75
2019-02-27T14:24:54.906Z,14.80
2019-02-27T14:27:31.730Z,18.00
2019-02-27T14:30:08.998Z,16.25
2019-02-27T14:32:51.218Z,14.43
2019-02-27T14:35:25.465Z,17.98
2019-02-27T14:38:03.974Z,15.65
2019-02-27T14:40:41.130Z,14.65
2019-02-27T14:43:26.863Z,15.80
2019-02-27T14:45:59.828Z,16.50
2019-02-27T14:48:34.176Z,16.40
2019-02-27T14:51:19.502Z,15.15
2019-02-27T14:53:55.779Z,16.62
2019-02-27T14:56:32.350Z,15.35
2019-02-27T14:59:07.025Z,16.52
2019-02-27T15:01:43.361Z,17.77
2019-02-27T15:04:17.932Z,18.85
2019-02-27T15:06:52.218Z,19.00
2019-02-27T15:09:26.723Z,15.48
2019-02-27T15:12:01.114Z,17.80
2019-02-27T15:14:37.009Z,16.20
2019-02-27T15:17:11.216Z,16.62
2019-02-27T15:19:45.790Z,16.15
2019-02-27T15:22:20.542Z,15.75
2019-02-27T15:24:54.917Z,15.93
2019-02-27T15:27:29.153Z,29.60
2019-02-27T15:30:03.473Z,20.00
2019-02-27T15:32:38.704Z,17.67
2019-02-27T15:35:15.550Z,16.85
2019-02-27T15:38:02.053Z,17.30
2019-02-27T15:40:38.310Z,16.20
2019-02-27T15:43:16.975Z,20.20
2019-02-27T15:45:49.173Z,21.68
2019-02-27T15:48:23.553Z,27.52
2019-02-27T15:50:57.764Z,28.23
2019-02-27T15:53:31.953Z,32.95
2019-02-27T15:56:18.556Z,23.42
2019-02-27T15:58:53.200Z,20.08
2019-02-27T16:01:28.223Z,24.15
2019-02-27T16:04:03.309Z,25.72
2019-02-27T16:06:39.743Z,34.92
2019-02-27T16:09:16.380Z,29.82
2019-02-27T16:11:51.542Z,24.15
2019-02-27T16:14:26.404Z,28.62
2019-02-27T16:17:02.518Z,29.30
2019-02-27T16:19:36.799Z,27.02
2019-02-27T16:22:11.056Z,23.12
2019-02-27T16:24:45.368Z,20.27
2019-02-27T16:27:19.555Z,19.23
2019-02-27T16:29:54.137Z,18.98
2019-02-27T16:32:29.905Z,18.12
2019-02-27T16:35:07.857Z,21.20
2019-02-27T16:37:41.668Z,19.98
2019-02-27T16:40:18.883Z,20.23
2019-02-27T16:42:53.362Z,20.35
2019-02-27T16:45:35.913Z,24.12
2019-02-27T16:48:11.149Z,19.82
2019-02-27T16:50:48.269Z,22.42
2019-02-27T16:53:22.589Z,22.17
2019-02-27T16:56:02.924Z,19.35
2019-02-27T16:58:37.550Z,21.87
2019-02-27T17:01:16.235Z,22.40
2019-02-27T17:03:59.269Z,24.27
2019-02-27T17:06:25.536Z,23.10
2019-02-27T17:08:59.135Z,23.67
2019-02-27T17:11:47.972Z,25.70
2019-02-27T17:14:25.160Z,23.53
2019-02-27T17:16:58.823Z,23.83
2019-02-27T17:19:37.343Z,27.00
2019-02-27T17:22:11.065Z,21.37
2019-02-27T17:24:47.443Z,21.70
2019-02-27T17:27:21.132Z,23.93
2019-02-27T17:30:01.176Z,22.73
2019-02-27T17:32:34.902Z,24.50
2019-02-27T17:35:09.048Z,22.07
2019-02-27T17:37:42.787Z,20.77
2019-02-27T17:40:17.556Z,24.57
2019-02-27T17:42:53.517Z,21.80
2019-02-27T17:45:31.093Z,21.47
2019-02-27T17:48:04.697Z,26.50
2019-02-27T17:50:39.408Z,23.80
2019-02-27T17:53:13.013Z,20.90
2019-02-27T17:55:51.414Z,25.27
2019-02-27T17:58:25.053Z,22.17
2019-02-27T18:01:03.816Z,23.63
2019-02-27T18:03:41.531Z,23.23
2019-02-27T18:06:16.990Z,25.60
2019-02-27T18:08:52.410Z,23.97
2019-02-27T18:11:28.609Z,25.53
2019-02-27T18:14:02.522Z,22.53
2019-02-27T18:16:38.571Z,26.93
2019-02-27T18:19:16.357Z,22.40
2019-02-27T18:21:47.575Z,23.27
2019-02-27T18:24:33.165Z,22.77
2019-02-27T18:27:15.455Z,24.90
2019-02-27T18:29:49.327Z,23.47
2019-02-27T18:32:26.975Z,24.70
2019-02-27T18:35:00.621Z,26.13
2019-02-27T18:40:17.711Z,21.97
2019-02-27T18:42:55.228Z,24.97
2019-02-27T18:45:30.175Z,24.67
2019-02-27T18:48:03.838Z,24.33
2019-02-27T18:50:40.435Z,23.37
2019-02-27T18:53:14.095Z,25.00
2019-02-27T18:55:51.372Z,21.83
2019-02-27T18:58:25.349Z,24.27
2019-02-27T19:01:00.487Z,25.20
2019-02-27T19:03:34.270Z,24.23
2019-02-27T19:06:12.097Z,26.30
2019-02-27T19:08:43.885Z,24.40
2019-02-27T19:11:22.424Z,27.57
2019-02-27T19:13:56.579Z,24.03
2019-02-27T19:16:42.399Z,23.60
2019-02-27T19:19:16.210Z,23.77
2019-02-27T19:21:53.167Z,21.50
2019-02-27T19:24:27.672Z,20.90
2019-02-27T19:27:01.411Z,26.57
2019-02-27T19:29:35.479Z,22.47
2019-02-27T19:32:09.079Z,21.63
2019-02-27T19:34:44.740Z,25.87
2019-02-27T19:37:19.199Z,21.50
2019-02-27T19:39:57.611Z,26.33
2019-02-27T19:42:31.382Z,22.67
2019-02-27T19:45:12.255Z,22.90
2019-02-27T19:47:46.058Z,21.57
2019-02-27T19:50:22.108Z,24.37
2019-02-27T19:52:56.332Z,23.47
2019-02-27T19:55:31.986Z,23.77
2019-02-27T19:58:06.108Z,24.57
2019-02-27T20:00:48.155Z,23.37
2019-02-27T20:03:18.831Z,22.03
2019-02-27T20:05:56.133Z,25.97
2019-02-27T20:08:29.956Z,24.33
2019-02-27T20:11:09.984Z,26.50
2019-02-27T20:13:43.647Z,24.73
2019-02-27T20:16:17.733Z,25.87
2019-02-27T20:18:55.123Z,23.80
2019-02-27T20:21:28.381Z,22.30
2019-02-27T20:24:14.233Z,24.03
2019-02-27T20:26:44.437Z,22.53
2019-02-27T20:29:16.574Z,23.43
2019-02-27T20:31:51.479Z,24.67
2019-02-27T20:34:25.578Z,27.30
2019-02-27T20:36:59.202Z,22.50
2019-02-27T20:39:32.945Z,26.53
2019-02-27T20:42:06.834Z,24.80
2019-02-27T20:44:40.846Z,23.47
2019-02-27T20:47:17.619Z,23.13
2019-02-27T20:49:51.346Z,22.70
2019-02-27T20:52:25.414Z,22.23
2019-02-27T20:55:00.119Z,24.33
2019-02-27T20:57:34.030Z,20.90
2019-02-27T21:00:15.925Z,24.50
2019-02-27T21:02:56.884Z,22.00
2019-02-27T21:05:32.647Z,21.43
2019-02-27T21:08:11.232Z,23.33
2019-02-27T21:10:44.897Z,23.07
2019-02-27T21:13:21.758Z,26.23
2019-02-27T21:15:55.355Z,20.57
2019-02-27T21:18:32.439Z,18.47
2019-02-27T21:21:04.421Z,22.03
2019-02-27T21:23:40.176Z,21.63
2019-02-27T21:26:13.913Z,22.83
2019-02-27T21:28:58.091Z,22.20
2019-02-27T21:31:27.539Z,19.67
2019-02-27T21:34:00.106Z,20.97
2019-02-27T21:36:36.491Z,19.93
2019-02-27T21:39:09.133Z,22.40
2019-02-27T21:41:46.265Z,22.70
2019-02-27T21:44:25.426Z,20.90
2019-02-27T21:46:56.693Z,20.53
2019-02-27T21:49:32.122Z,22.93
2019-02-27T21:52:13.613Z,21.93
2019-02-27T21:54:47.361Z,19.80
2019-02-27T21:57:27.133Z,24.07
2019-02-27T22:00:01.203Z,24.10
2019-02-27T22:02:38.330Z,24.80
2019-02-27T22:05:18.487Z,24.90
2019-02-27T22:07:48.652Z,20.47
2019-02-27T22:10:22.387Z,24.63
2019-02-27T22:12:55.997Z,21.97
2019-02-27T22:15:31.324Z,26.03
2019-02-27T22:18:05.087Z,21.37
2019-02-27T22:20:38.769Z,22.40
2019-02-27T22:23:12.886Z,22.13
2019-02-27T22:25:47.122Z,24.77
2019-02-27T22:28:21.096Z,23.80
2019-02-27T22:31:06.025Z,23.73
2019-02-27T22:33:36.600Z,27.17
2019-02-27T22:36:12.788Z,24.73
2019-02-27T22:38:45.594Z,25.30
2019-02-27T22:41:19.614Z,21.97
2019-02-27T22:43:56.862Z,25.37
2019-02-27T22:46:30.540Z,26.70
2019-02-27T22:49:04.525Z,22.70
2019-02-27T22:51:38.209Z,24.83
2019-02-27T22:54:12.132Z,27.33
2019-02-27T22:56:50.003Z,21.87
2019-02-27T22:59:21.102Z,23.70
2019-02-27T23:01:58.435Z,23.87
2019-02-27T23:04:32.195Z,26.17
2019-02-27T23:07:09.090Z,25.40
2019-02-27T23:09:42.852Z,27.10
2019-02-27T23:12:16.824Z,25.57
2019-02-27T23:14:53.802Z,26.17
2019-02-27T23:17:27.996Z,27.37
2019-02-27T23:20:01.697Z,27.20
2019-02-27T23:22:35.705Z,30.80
2019-02-27T23:25:09.403Z,28.83
2019-02-27T23:27:46.165Z,30.20
2019-02-27T23:30:19.860Z,29.97
2019-02-27T23:32:53.526Z,27.70
2019-02-27T23:35:27.236Z,30.83
2019-02-27T23:38:03.303Z,32.03
2019-02-27T23:40:36.335Z,28.37
2019-02-27T23:43:10.099Z,27.73
2019-02-27T23:45:44.542Z,29.70
2019-02-27T23:48:18.725Z,31.03
2019-02-27T23:50:52.808Z,29.67
2019-02-27T23:53:27.098Z,32.33
2019-02-27T23:56:01.511Z,31.07
2019-02-27T23:58:35.635Z,29.40
